Historyczne dane pomiarowe

Dodano dane terminowe – wersja testowa.

Dane z okresu 1951-2019

Wersja bazy: 1.34 [2019-03-16, lista zmian], aktualizacja planowana na 2019-04-15

Dane meteo z obszaru Polski uzyskane na podstawie danych udostępnionych przez Instytut Meteorologii i Gospodarki Wodnej – Państwowy Instytut Badawczy.

 

Wybierz Datę:    

       

TemperaturaWilgotnośćWiatrCiśnienieOpadyŚniegCzas trwania zjawisk
 Stacja t tx tn tng RH VA  wxwx mslp ppp RRR   cm mm wxwxwxwxwxwxwx
1999-08-14 16.0 22.8 7.1 2.3-- 2.7 1.7---- 0.0------------
1999-08-13 15.3 20.8 10.1 4.8-- 4.3 3.0---- 0.0------------
1999-08-12 15.0 19.8 10.1 4.3-- 5.3 3.7---- 0.0------------
1999-08-11 19.0 23.3 15.6 10.9-- 3.7 2.7---- 0.2------------
1999-08-10 21.4 27.3 15.5 11.3-- 6.0 1.3---- 0.0------------
1999-08-09 21.6 27.5 16.7 11.8-- 4.0 1.7---- 0.0------------
1999-08-08 21.9 29.5 18.0 15.2-- 5.3 1.3---- 0.0------------
1999-08-07 22.2 30.4 13.1 7.8-- 3.7 0.7---- 0.0------------
1999-08-06 22.3 29.0 16.6 12.8-- 5.3 0.7---- 0.0------------
1999-08-05 20.6 29.4 10.1 5.3-- 2.3 0.0---- 0.0------------
1999-08-04 19.8 28.1 10.6 5.8-- 3.0 0.7---- 0.0------------
1999-08-03 20.4 27.9 12.1 6.5-- 4.3 1.3---- 0.0------------
1999-08-02 20.2 27.3 12.1 7.3-- 3.7 1.7---- 0.0------------
1999-08-01 21.7 27.9 15.6 12.3-- 3.7 2.3---- 0.0------------
1999-07-31 20.9 28.4 12.6 7.8-- 1.7 2.7---- 0.0------------
1999-07-30 20.4 27.0 14.0 8.3-- 1.3 2.0---- 0.0------------
1999-07-29 20.1 25.5 13.6 10.5-- 3.3 2.7---- 0.0------------
1999-07-28 19.6 26.0 12.6 8.3-- 2.7 2.3---- 0.0------------
1999-07-27 18.1 23.0 12.6 10.5-- 1.7 2.3---- 0.0------------
1999-07-26 21.3 28.9 14.0 11.3-- 3.3 1.7---- 0.0------------
1999-07-25 19.9 26.2 11.7 8.8-- 5.3 1.7---- 0.0------------
1999-07-24 17.4 21.8 12.1 11.3-- 3.7 2.3---- 0.0------------
1999-07-23 17.5 22.8 12.1 9.3-- 6.0 2.3---- 0.0------------
1999-07-22 18.0 21.8 14.4 11.3-- 4.3 3.7---- 0.0------------
1999-07-21 22.0 28.1 16.4 13.7-- 3.0 3.3---- 0.0------------
1999-07-20 22.7 31.4 14.0 10.8-- 2.7 3.7---- 0.5------------
1999-07-19 23.9 35.2 14.0 11.0-- 3.3 0.7---- 0.0------------
1999-07-18 21.2 28.4 12.6 9.8-- 2.7 0.7---- 0.0------------
1999-07-17 18.9 25.3 10.7 8.5-- 3.3 0.7---- 0.0------------
1999-07-16 17.3 22.1 12.7 11.5-- 4.7 1.3---- 3.3------------
1999-07-15 17.6 21.5 15.0 14.2-- 4.0 3.3---- 0.0------------
1999-07-14 20.6 26.3 17.4 16.0-- 6.0 1.3---- 55.0------------
1999-07-13 23.0 29.7 17.5 14.8-- 4.3 2.3---- 17.6------------
1999-07-12 23.2 29.1 16.6 14.7-- 5.0 3.0---- 0.0------------
1999-07-11 21.4 27.3 13.6 11.1-- 2.3 3.3---- 0.0------------
1999-07-10 21.1 26.1 15.2 13.6-- 1.3 3.3---- 0.0------------
1999-07-09 20.2 25.1 15.5 14.2-- 4.0 3.3---- 0.0------------
1999-07-08 17.4 19.0 16.0 15.2-- 7.7 2.0---- 6.3------------
1999-07-07 19.4 24.0 17.0 16.8-- 6.7 2.3---- 0.0------------
1999-07-06 24.1 30.4 18.5 14.7-- 5.0 2.7---- 9.0------------
1999-07-05 25.6 33.6 16.6 14.7-- 3.0 2.3---- 0.0------------
1999-07-04 21.9 30.6 14.0 12.9-- 3.7 2.7---- 1.0------------
1999-07-03 21.2 26.5 13.6 12.3-- 2.0 1.3---- 0.0------------
1999-07-02 18.7 24.0 15.3 13.6-- 4.7 2.0---- 4.5------------
1999-07-01 19.7 25.0 14.5 11.5-- 4.7 0.7---- 1.5------------
1999-06-30 20.1 26.5 10.9 7.9-- 3.7 1.3---- 0.0------------
1999-06-29 19.0 23.8 12.3 10.3-- 3.3 1.3---- 0.0------------
1999-06-28 21.5 28.1 16.5 14.5-- 4.7 1.7---- 0.0------------
1999-06-27 21.0 27.6 13.6 11.3-- 4.0 2.3---- 0.0------------
1999-06-26 14.5 20.3 6.1 3.8-- 2.3 1.3---- 0.9------------
1999-06-25 14.0 19.3 8.6 5.8-- 4.0 2.3---- 1.0------------
1999-06-24 13.0 17.9 5.6 4.3-- 3.3 0.7---- 0.0------------
1999-06-23 12.5 15.7 8.8 7.8-- 5.7 2.0---- 0.0------------
1999-06-22 11.1 13.0 9.8 9.3-- 8.0 3.3---- 14.4------------
1999-06-21 15.7 20.3 12.8 12.3-- 7.0 2.3---- 1.8------------
1999-06-20 18.8 22.8 14.0 11.8-- 4.0 1.3---- 0.0------------
1999-06-19 16.9 19.0 14.5 14.2-- 7.7 2.0---- 0.0------------
1999-06-18 18.1 20.8 14.5 11.9-- 7.3 1.3---- 10.2------------
1999-06-17 19.1 22.7 16.0 15.7-- 7.7 1.3---- 0.0------------
1999-06-16 17.6 21.3 12.6 11.3-- 5.0 1.7---- 0.0------------
254.0 ms

 

Źródłem pochodzenia danych jest Instytut Meteorologii i Gospodarki Wodnej – Państwowy Instytut Badawczy. Dane Instytutu Meteorologii i Gospodarki Wodnej – Państwowego Instytutu Badawczego zostały przetworzone.

Dane źródłowe można odnaleźć na stronie https://dane.imgw.pl